Time;durP1;ratioP1;P1;durP2;ratioP2;P2;SDS_P1;SDS_P2;PMS_P1;PMS_P2;Temp;Humidity;BMP_temperature;BMP_pressure;BME280_temperature;BME280_humidity;BME280_pressure;Samples;Min_cycle;Max_cycle;Signal;HPM_P1;HPM_P2
2022/12/16 00:01:42;;;;;;;9.40;4.20;;;;;;;5.16;69.78;101146.56;5010811;28;20030;-44
2022/12/16 00:04:08;;;;;;;10.00;4.63;;;;;;;5.09;70.20;101142.88;5010912;28;20036;-42
2022/12/16 00:06:33;;;;;;;8.07;4.47;;;;;;;5.04;69.82;101159.00;5010986;28;20048;-43
2022/12/16 00:08:59;;;;;;;9.32;4.25;;;;;;;5.08;69.80;101153.13;5010771;28;20032;-43
2022/12/16 00:11:26;;;;;;;5.35;3.75;;;;;;;4.96;70.04;101145.78;5009807;28;20025;-44
2022/12/16 00:13:51;;;;;;;8.20;3.78;;;;;;;5.05;70.19;101148.75;5010261;28;20030;-43
2022/12/16 00:16:18;;;;;;;6.47;3.67;;;;;;;4.90;70.67;101149.00;5010413;28;20103;-41
2022/12/16 00:18:44;;;;;;;6.80;3.28;;;;;;;5.01;70.71;101159.75;5010398;28;20033;-45
2022/12/16 00:21:10;;;;;;;5.60;3.40;;;;;;;5.01;70.92;101159.75;5010285;28;20080;-39
2022/12/16 00:23:38;;;;;;;6.68;3.05;;;;;;;4.90;70.54;101148.13;5010294;28;20041;-42
2022/12/16 00:26:03;;;;;;;6.13;3.00;;;;;;;5.00;70.27;101149.38;5010302;28;20026;-42
2022/12/16 00:28:29;;;;;;;6.30;3.10;;;;;;;4.82;70.73;101157.25;5010124;28;20434;-42
2022/12/16 00:30:55;;;;;;;6.00;3.28;;;;;;;4.88;70.54;101155.78;5009901;28;20022;-43
2022/12/16 00:33:22;;;;;;;8.00;2.90;;;;;;;4.80;70.44;101164.97;5010613;28;20053;-42
2022/12/16 00:35:48;;;;;;;6.28;2.85;;;;;;;4.81;70.21;101156.41;5010132;28;20044;-42
2022/12/16 00:38:14;;;;;;;5.70;2.55;;;;;;;4.88;69.97;101160.97;5013455;28;20550;-41
2022/12/16 00:40:40;;;;;;;6.05;2.60;;;;;;;4.88;69.58;101158.38;5013046;28;20030;-43
2022/12/16 00:43:05;;;;;;;6.82;2.47;;;;;;;5.03;69.31;101168.47;5010306;28;20526;-41
2022/12/16 00:45:31;;;;;;;6.10;2.38;;;;;;;4.66;70.45;101167.78;5010638;28;20026;-46
2022/12/16 00:47:56;;;;;;;9.55;2.72;;;;;;;4.98;69.63;101171.69;5011894;28;20391;-44
2022/12/16 00:50:22;;;;;;;7.20;2.65;;;;;;;4.86;69.25;101175.53;5011729;28;20021;-38
2022/12/16 00:52:48;;;;;;;6.60;2.25;;;;;;;4.96;69.01;101183.66;5010959;28;20033;-42
2022/12/16 00:55:14;;;;;;;5.25;2.40;;;;;;;4.83;69.44;101177.97;5010157;28;20030;-45
2022/12/16 00:57:40;;;;;;;5.45;2.42;;;;;;;4.93;69.26;101173.19;5009950;28;20706;-41
2022/12/16 01:00:08;;;;;;;7.30;2.90;;;;;;;4.81;69.55;101177.06;5010249;28;20026;-42
2022/12/16 01:02:33;;;;;;;5.93;2.70;;;;;;;4.88;69.22;101176.47;5010956;28;20100;-40
2022/12/16 01:04:58;;;;;;;5.22;2.80;;;;;;;4.86;68.83;101183.28;5010800;28;20080;-41
2022/12/16 01:07:24;;;;;;;5.18;2.60;;;;;;;4.91;68.82;101170.56;5011866;28;20100;-45
2022/12/16 01:09:49;;;;;;;7.50;2.65;;;;;;;4.83;68.57;101180.56;5010916;28;20571;-41
2022/12/16 01:12:14;;;;;;;7.22;2.80;;;;;;;4.71;68.92;101185.22;5010899;28;20455;-44
2022/12/16 01:14:40;;;;;;;5.80;2.40;;;;;;;4.58;69.81;101180.34;5010788;28;20507;-41
2022/12/16 01:17:05;;;;;;;5.00;2.50;;;;;;;4.65;68.90;101178.91;5010284;28;20022;-44
2022/12/16 01:19:30;;;;;;;5.25;2.28;;;;;;;4.76;68.16;101190.56;5010361;28;20021;-46
2022/12/16 01:21:56;;;;;;;7.47;2.55;;;;;;;4.69;68.24;101191.16;5009829;28;20549;-41
2022/12/16 01:24:21;;;;;;;9.00;2.50;;;;;;;4.68;68.12;101200.59;5010102;28;20033;-43
2022/12/16 01:26:46;;;;;;;10.23;2.55;;;;;;;4.59;68.17;101199.31;5010295;28;20422;-42
2022/12/16 01:29:12;;;;;;;7.45;2.28;;;;;;;4.46;68.27;101203.97;5010026;28;20113;-42
2022/12/16 01:31:37;;;;;;;6.57;2.30;;;;;;;4.51;68.42;101205.88;5009582;28;20022;-45
2022/12/16 01:34:03;;;;;;;5.47;2.47;;;;;;;4.45;68.72;101217.69;5010134;28;20022;-43
2022/12/16 01:36:28;;;;;;;8.30;2.58;;;;;;;4.43;68.97;101218.44;5009928;28;20030;-39
2022/12/16 01:38:54;;;;;;;12.48;2.38;;;;;;;4.25;69.23;101220.22;5009989;28;20711;-41
2022/12/16 01:41:19;;;;;;;6.20;2.38;;;;;;;4.25;68.95;101217.66;5009625;28;20032;-43
2022/12/16 01:43:45;;;;;;;7.43;2.70;;;;;;;4.47;69.09;101230.66;5010300;28;20419;-40
2022/12/16 01:46:13;;;;;;;7.53;2.80;;;;;;;4.28;69.08;101223.81;5010067;28;20072;-43
2022/12/16 01:48:58;;;;;;;7.07;2.92;;;;;;;4.25;69.82;101239.16;5010076;28;20026;-40
2022/12/16 01:51:38;;;;;;;11.88;3.25;;;;;;;4.21;68.82;101244.13;5009537;28;20022;-41
2022/12/16 01:54:10;;;;;;;7.53;2.85;;;;;;;4.27;68.97;101239.25;5010713;28;20049;-42
2022/12/16 01:56:40;;;;;;;7.20;3.20;;;;;;;4.23;68.76;101242.47;5013244;28;20111;-42
2022/12/16 01:59:07;;;;;;;7.07;2.70;;;;;;;4.36;67.76;101252.53;5012295;28;20099;-42
2022/12/16 02:01:32;;;;;;;9.80;2.85;;;;;;;4.19;68.50;101258.66;5013706;28;20040;-43
2022/12/16 02:04:01;;;;;;;8.07;2.38;;;;;;;4.18;68.29;101257.78;5014456;28;20033;-41
2022/12/16 02:06:29;;;;;;;5.35;2.30;;;;;;;4.36;67.29;101250.84;5013770;28;20076;-43
2022/12/16 02:08:57;;;;;;;10.10;2.20;;;;;;;4.27;68.02;101259.91;5013776;28;20388;-42
2022/12/16 02:11:47;;;;;;;5.05;2.13;;;;;;;4.23;67.47;101260.56;5013438;28;20060;-40
2022/12/16 02:14:30;;;;;;;4.38;1.88;;;;;;;4.30;67.42;101262.59;5012851;28;20091;-43
2022/12/16 02:17:21;;;;;;;6.60;1.85;;;;;;;4.26;67.54;101266.75;5013608;28;20079;-41
2022/12/16 02:20:17;;;;;;;7.45;1.85;;;;;;;4.23;67.07;101274.34;5013629;28;20030;-45
2022/12/16 02:22:52;;;;;;;8.13;1.73;;;;;;;4.24;67.07;101270.94;5013541;28;20029;-42
2022/12/16 02:25:46;;;;;;;5.70;1.55;;;;;;;4.18;67.11;101269.78;5013987;28;20097;-45
2022/12/16 02:28:21;;;;;;;7.43;2.00;;;;;;;4.30;66.95;101275.50;5013659;28;20549;-42
2022/12/16 02:30:46;;;;;;;4.30;1.60;;;;;;;4.22;66.55;101276.84;5013141;28;20118;-43
2022/12/16 02:33:30;;;;;;;5.35;2.08;;;;;;;4.13;66.84;101277.34;5014279;28;20049;-38
2022/12/16 02:36:10;;;;;;;5.32;1.83;;;;;;;4.07;66.71;101275.34;5014009;28;20084;-46
2022/12/16 02:38:53;;;;;;;4.95;1.38;;;;;;;3.95;67.12;101285.13;5014256;28;20053;-44
2022/12/16 02:41:48;;;;;;;4.53;1.65;;;;;;;4.00;66.77;101283.63;5013748;28;20568;-41
2022/12/16 02:44:15;;;;;;;5.45;1.35;;;;;;;3.95;66.61;101286.81;5013915;28;20017;-41
2022/12/16 02:47:01;;;;;;;5.20;1.40;;;;;;;3.97;66.21;101285.16;5013344;28;20017;-42
2022/12/16 02:49:27;;;;;;;8.73;1.90;;;;;;;3.77;66.51;101291.09;5013410;28;20017;-41
2022/12/16 02:51:54;;;;;;;6.32;1.50;;;;;;;3.89;66.25;101286.53;5013652;28;20034;-42
2022/12/16 02:54:19;;;;;;;9.30;1.55;;;;;;;3.88;66.26;101292.50;5014041;28;20021;-41
2022/12/16 02:56:50;;;;;;;5.32;1.48;;;;;;;3.79;67.08;101289.47;5013438;28;20083;-41
2022/12/16 02:59:37;;;;;;;4.90;1.40;;;;;;;3.81;67.10;101299.06;5015521;28;20064;-41
2022/12/16 03:02:21;;;;;;;5.70;1.50;;;;;;;3.90;66.83;101296.91;5014788;28;20026;-43
2022/12/16 03:05:01;;;;;;;3.30;1.23;;;;;;;3.91;66.67;101305.50;5018003;28;20497;-42
2022/12/16 03:07:30;;;;;;;6.18;1.50;;;;;;;3.82;66.42;101313.72;5017652;28;20097;-41
2022/12/16 03:09:58;;;;;;;5.35;1.35;;;;;;;3.78;66.27;101319.53;5018111;28;20028;-42
2022/12/16 03:12:24;;;;;;;6.38;1.25;;;;;;;3.63;67.12;101317.13;5018125;28;20021;-43
2022/12/16 03:14:52;;;;;;;4.78;1.25;;;;;;;3.61;66.93;101312.69;5017689;28;20018;-42
2022/12/16 03:17:20;;;;;;;5.28;1.50;;;;;;;3.74;66.64;101319.31;5017983;28;20022;-42
2022/12/16 03:19:56;;;;;;;7.10;1.50;;;;;;;3.73;66.11;101320.13;5014505;28;20033;-43
2022/12/16 03:22:27;;;;;;;6.75;1.65;;;;;;;3.65;66.53;101320.66;5011926;28;20029;-43
2022/12/16 03:24:52;;;;;;;6.75;1.48;;;;;;;3.71;66.68;101322.66;5012419;28;20363;-42
2022/12/16 03:27:25;;;;;;;10.65;1.70;;;;;;;3.51;66.84;101320.78;5011900;28;20026;-42
2022/12/16 03:30:08;;;;;;;4.35;1.52;;;;;;;3.59;66.96;101319.47;5012127;28;20033;-46
2022/12/16 03:32:40;;;;;;;4.53;1.25;;;;;;;3.59;66.70;101314.31;5011458;28;20533;-43
2022/12/16 03:35:22;;;;;;;6.07;1.70;;;;;;;3.61;66.93;101320.41;5011723;28;20029;-40
2022/12/16 03:37:52;;;;;;;6.15;1.58;;;;;;;3.62;66.47;101324.75;5011827;28;20096;-45
2022/12/16 03:40:19;;;;;;;4.45;1.40;;;;;;;3.74;65.68;101330.50;5012134;28;20056;-42
2022/12/16 03:42:45;;;;;;;8.77;1.63;;;;;;;3.63;66.42;101327.44;5013361;28;20029;-42
2022/12/16 03:45:16;;;;;;;5.65;1.55;;;;;;;3.66;65.76;101331.81;5014921;28;20079;-43
2022/12/16 03:47:41;;;;;;;5.65;1.50;;;;;;;3.65;66.13;101336.13;5013659;28;20471;-41
2022/12/16 03:50:07;;;;;;;4.97;1.70;;;;;;;3.70;66.36;101333.75;5012938;28;20040;-41
2022/12/16 03:52:33;;;;;;;4.57;1.70;;;;;;;3.67;66.07;101342.22;5013399;28;20026;-42
2022/12/16 03:54:58;;;;;;;5.72;1.80;;;;;;;3.70;65.62;101343.19;5013329;28;20357;-40
2022/12/16 03:57:23;;;;;;;4.95;1.90;;;;;;;3.60;65.66;101349.56;5014237;28;20144;-41
2022/12/16 03:59:49;;;;;;;6.95;1.60;;;;;;;3.59;66.05;101340.09;5011639;28;20021;-43
2022/12/16 04:02:14;;;;;;;6.72;1.55;;;;;;;3.58;66.04;101344.38;5011526;28;20056;-42
2022/12/16 04:04:39;;;;;;;5.32;1.80;;;;;;;3.57;65.45;101350.34;5011177;28;20393;-40
2022/12/16 04:07:20;;;;;;;6.28;1.42;;;;;;;3.50;65.05;101350.84;5010695;28;20357;-43
2022/12/16 04:09:45;;;;;;;3.83;1.40;;;;;;;3.49;65.45;101355.91;5010880;28;20021;-46
2022/12/16 04:25:58;;;;;;;7.00;1.50;;;;;;;3.09;65.33;101358.19;5010897;28;20172;-43
2022/12/16 04:28:23;;;;;;;6.15;1.80;;;;;;;3.01;65.77;101349.19;5011105;28;20108;-45
2022/12/16 04:30:48;;;;;;;3.75;1.58;;;;;;;2.93;65.86;101373.69;5010852;28;20025;-44
